Time;durP1;ratioP1;P1;durP2;ratioP2;P2;SDS_P1;SDS_P2;PMS_P1;PMS_P2;Temp;Humidity;BMP_temperature;BMP_pressure;BME280_temperature;BME280_humidity;BME280_pressure;Samples;Min_cycle;Max_cycle;Signal;HPM_P1;HPM_P2
2023/12/27 00:01:37;;;;;;;18.90;3.30;;;2.50;78.60;;;;;;5025151;28;20045;-73
2023/12/27 00:04:02;;;;;;;13.17;3.50;;;2.50;78.60;;;;;;5022962;28;20085;-74
2023/12/27 00:06:28;;;;;;;13.63;3.20;;;2.40;78.60;;;;;;5029102;28;20439;-74
2023/12/27 00:08:54;;;;;;;17.47;3.30;;;2.30;78.70;;;;;;5014232;28;20496;-74
2023/12/27 00:11:20;;;;;;;15.60;3.40;;;2.30;78.90;;;;;;5025161;28;20526;-73
2023/12/27 00:13:45;;;;;;;15.33;3.93;;;2.20;78.90;;;;;;5025982;28;20401;-73
2023/12/27 00:16:11;;;;;;;12.80;3.40;;;2.20;79.10;;;;;;5025685;28;20053;-73
2023/12/27 00:18:37;;;;;;;17.07;3.93;;;2.20;79.10;;;;;;5025454;28;20585;-73
2023/12/27 00:21:04;;;;;;;11.77;3.57;;;2.10;79.10;;;;;;5024815;28;20045;-74
2023/12/27 00:23:29;;;;;;;19.57;3.73;;;2.10;79.00;;;;;;5028299;28;20049;-74
2023/12/27 00:25:56;;;;;;;16.80;3.67;;;2.10;79.10;;;;;;5029082;28;20049;-74
2023/12/27 00:28:21;;;;;;;18.57;4.10;;;2.10;79.10;;;;;;5029776;28;20057;-73
2023/12/27 00:30:49;;;;;;;17.10;3.80;;;2.00;79.10;;;;;;5029057;28;20049;-73
2023/12/27 00:33:15;;;;;;;14.67;3.60;;;2.00;79.20;;;;;;5020437;28;20069;-73
2023/12/27 00:35:41;;;;;;;14.93;3.60;;;2.00;79.30;;;;;;5009173;28;20120;-74
2023/12/27 00:38:07;;;;;;;16.80;3.87;;;2.00;79.30;;;;;;5010548;28;20496;-74
2023/12/27 00:40:32;;;;;;;17.70;3.90;;;2.00;79.40;;;;;;5010215;28;20532;-73
2023/12/27 00:42:58;;;;;;;19.13;4.00;;;1.90;79.40;;;;;;5018806;28;20195;-74
2023/12/27 00:45:24;;;;;;;16.30;3.27;;;1.90;79.50;;;;;;5029996;28;20390;-73
2023/12/27 00:47:49;;;;;;;18.90;3.67;;;1.90;79.40;;;;;;5011847;28;20244;-73
2023/12/27 00:50:15;;;;;;;16.83;3.47;;;1.90;79.50;;;;;;5029411;28;20091;-73
2023/12/27 00:52:41;;;;;;;16.23;3.70;;;1.80;79.60;;;;;;5029377;28;20412;-73
2023/12/27 00:55:07;;;;;;;13.57;3.17;;;1.80;79.70;;;;;;5029517;28;20053;-73
2023/12/27 00:57:33;;;;;;;16.90;3.40;;;1.80;79.70;;;;;;5029574;28;20042;-73
2023/12/27 00:59:59;;;;;;;19.40;3.30;;;1.80;79.70;;;;;;5027540;28;20389;-73
2023/12/27 01:02:25;;;;;;;12.10;3.40;;;1.70;79.80;;;;;;5026480;28;20048;-73
2023/12/27 01:04:52;;;;;;;16.57;3.60;;;1.70;79.80;;;;;;5019091;28;20417;-73
2023/12/27 01:07:20;;;;;;;13.57;3.00;;;1.70;79.90;;;;;;5029308;28;20180;-73
2023/12/27 01:09:46;;;;;;;12.40;3.00;;;1.70;79.90;;;;;;5027752;28;20046;-74
2023/12/27 01:12:11;;;;;;;14.57;3.83;;;1.70;80.00;;;;;;5010454;28;20042;-73
2023/12/27 01:14:37;;;;;;;16.90;3.40;;;1.60;80.10;;;;;;5024900;28;20500;-73
2023/12/27 01:17:03;;;;;;;14.37;3.23;;;1.70;80.10;;;;;;5027756;28;20497;-74
2023/12/27 01:19:28;;;;;;;18.10;3.67;;;1.60;80.10;;;;;;5017028;28;20053;-73
2023/12/27 01:21:54;;;;;;;19.27;3.13;;;1.60;80.10;;;;;;5039259;28;20049;-73
2023/12/27 01:24:20;;;;;;;17.97;3.77;;;1.60;80.00;;;;;;5029353;28;20045;-74
2023/12/27 01:26:45;;;;;;;18.77;3.90;;;1.60;80.10;;;;;;5027116;28;20390;-73
2023/12/27 01:29:11;;;;;;;15.07;3.60;;;1.60;80.30;;;;;;5029303;28;20747;-73
2023/12/27 01:31:37;;;;;;;14.57;3.10;;;1.60;80.30;;;;;;5027346;28;20064;-73
2023/12/27 01:34:02;;;;;;;16.10;3.43;;;1.50;80.30;;;;;;5012352;28;20402;-73
2023/12/27 01:36:28;;;;;;;11.83;3.10;;;1.50;80.30;;;;;;5016474;28;20049;-74
2023/12/27 01:38:54;;;;;;;15.50;3.03;;;1.50;80.30;;;;;;5028877;28;20080;-73
2023/12/27 01:41:19;;;;;;;16.67;3.73;;;1.40;80.40;;;;;;5025298;28;20466;-72
2023/12/27 01:43:45;;;;;;;16.10;3.50;;;1.40;80.30;;;;;;5024315;28;20056;-73
2023/12/27 01:46:11;;;;;;;12.90;3.37;;;1.40;80.40;;;;;;5028777;28;20057;-74
2023/12/27 01:48:39;;;;;;;22.47;3.47;;;1.40;80.50;;;;;;5026590;28;20088;-72
2023/12/27 01:51:05;;;;;;;12.83;3.47;;;1.40;80.60;;;;;;5028716;28;20057;-72
2023/12/27 01:53:30;;;;;;;18.33;4.10;;;1.40;80.60;;;;;;5028436;28;20418;-74
2023/12/27 01:55:56;;;;;;;17.73;3.37;;;1.30;80.70;;;;;;5026165;28;20045;-73
2023/12/27 01:58:22;;;;;;;19.90;3.77;;;1.30;80.70;;;;;;5028307;28;20084;-74
2023/12/27 02:00:48;;;;;;;16.20;3.33;;;1.30;80.80;;;;;;5026257;28;20057;-72
2023/12/27 02:03:15;;;;;;;15.23;3.60;;;1.30;80.80;;;;;;5017681;28;20484;-73
2023/12/27 02:05:41;;;;;;;20.80;3.43;;;1.20;80.90;;;;;;5023256;28;20187;-72
2023/12/27 02:08:11;;;;;;;17.10;3.53;;;1.20;80.80;;;;;;5026492;28;20416;-74
2023/12/27 02:10:37;;;;;;;17.50;3.63;;;1.20;80.90;;;;;;5020143;28;20081;-73
2023/12/27 02:13:06;;;;;;;23.00;3.70;;;1.20;81.00;;;;;;5026206;28;20046;-73
2023/12/27 02:15:33;;;;;;;22.47;4.20;;;1.20;81.00;;;;;;5026889;28;20053;-73
2023/12/27 02:18:00;;;;;;;20.20;3.80;;;1.20;81.10;;;;;;5017504;28;20069;-73
2023/12/27 02:20:26;;;;;;;20.77;3.67;;;1.20;81.10;;;;;;5025069;28;20056;-73
2023/12/27 02:22:54;;;;;;;14.80;4.03;;;1.20;81.20;;;;;;5026464;28;20058;-72
2023/12/27 02:25:20;;;;;;;19.60;3.97;;;1.20;81.20;;;;;;5026938;28;20080;-74
2023/12/27 02:27:46;;;;;;;21.80;4.20;;;1.20;81.30;;;;;;5026057;28;20057;-73
2023/12/27 02:30:19;;;;;;;17.23;3.80;;;1.20;81.30;;;;;;5032992;28;20050;-73
2023/12/27 02:32:46;;;;;;;16.17;3.60;;;1.20;81.10;;;;;;5026751;28;20338;-72
2023/12/27 02:35:12;;;;;;;21.07;4.27;;;1.10;81.10;;;;;;5027161;28;20057;-73
2023/12/27 02:37:38;;;;;;;16.27;3.80;;;1.10;81.00;;;;;;5042235;28;20527;-72
2023/12/27 02:40:04;;;;;;;14.00;4.03;;;1.00;81.10;;;;;;5027638;28;20060;-73
2023/12/27 02:42:30;;;;;;;15.00;3.60;;;1.00;81.20;;;;;;5021126;28;20546;-72
2023/12/27 02:44:55;;;;;;;14.80;3.57;;;1.00;81.20;;;;;;5027622;28;20064;-72
2023/12/27 02:47:21;;;;;;;19.33;3.90;;;0.80;81.20;;;;;;5026818;28;20051;-72
2023/12/27 02:49:47;;;;;;;20.07;4.20;;;0.80;81.10;;;;;;5027553;28;20132;-72
2023/12/27 02:52:12;;;;;;;12.73;2.90;;;0.80;81.00;;;;;;5027208;28;20056;-73
2023/12/27 02:54:38;;;;;;;15.00;3.67;;;0.60;81.00;;;;;;5025524;28;20045;-73
2023/12/27 02:57:04;;;;;;;8.50;3.10;;;0.60;81.10;;;;;;5027469;28;20049;-72
2023/12/27 02:59:29;;;;;;;16.73;3.03;;;0.50;80.90;;;;;;5021679;28;20073;-72
2023/12/27 03:01:55;;;;;;;15.87;3.00;;;0.50;80.90;;;;;;5006666;28;20080;-73
2023/12/27 03:04:21;;;;;;;15.10;3.40;;;0.40;80.90;;;;;;5013002;28;20045;-74
2023/12/27 03:06:46;;;;;;;13.80;3.30;;;0.30;80.90;;;;;;5008819;28;20049;-72
2023/12/27 03:09:12;;;;;;;10.07;3.23;;;0.30;81.00;;;;;;5026654;28;20048;-72
2023/12/27 03:11:38;;;;;;;15.87;3.27;;;0.30;81.00;;;;;;5010511;28;20046;-72
2023/12/27 03:14:04;;;;;;;10.10;3.13;;;0.30;81.10;;;;;;5017908;28;20056;-72
2023/12/27 03:16:30;;;;;;;11.97;3.13;;;0.30;81.10;;;;;;5027192;28;20041;-72
2023/12/27 03:18:56;;;;;;;11.40;3.10;;;0.30;81.20;;;;;;5026445;28;20053;-72
2023/12/27 03:21:22;;;;;;;12.33;3.00;;;0.30;81.20;;;;;;5026516;28;20076;-72
2023/12/27 03:23:48;;;;;;;14.17;3.50;;;0.20;81.20;;;;;;5026849;28;20057;-73
2023/12/27 03:26:14;;;;;;;9.40;2.80;;;0.30;81.30;;;;;;5026165;28;20461;-72
2023/12/27 03:28:40;;;;;;;13.20;3.50;;;0.30;81.40;;;;;;5024552;28;20124;-72
2023/12/27 03:31:06;;;;;;;12.63;3.07;;;0.20;81.40;;;;;;5008903;28;20089;-72
2023/12/27 03:33:32;;;;;;;15.00;3.13;;;0.20;81.30;;;;;;5026733;28;20548;-72
2023/12/27 03:35:58;;;;;;;12.27;3.37;;;0.20;81.40;;;;;;5025667;28;20128;-72
2023/12/27 03:38:23;;;;;;;11.70;2.90;;;0.20;81.40;;;;;;5027195;28;20473;-72
2023/12/27 03:40:49;;;;;;;14.27;3.40;;;0.20;81.40;;;;;;5025977;28;20060;-73
2023/12/27 03:43:15;;;;;;;13.23;2.97;;;0.20;81.50;;;;;;5020025;28;20041;-72
2023/12/27 03:45:41;;;;;;;14.30;3.10;;;0.10;81.40;;;;;;5025699;28;20068;-72
2023/12/27 03:48:07;;;;;;;12.20;3.50;;;0.20;81.50;;;;;;5026265;28;20354;-73
2023/12/27 03:50:32;;;;;;;15.40;3.73;;;0.20;81.40;;;;;;5026334;28;20057;-72
2023/12/27 03:52:58;;;;;;;12.47;3.20;;;0.20;81.40;;;;;;5026014;28;20100;-72
2023/12/27 03:55:25;;;;;;;29.27;4.33;;;0.20;81.50;;;;;;5026844;28;20084;-72
2023/12/27 03:57:51;;;;;;;16.27;4.13;;;0.20;81.60;;;;;;5024364;28;20049;-72
2023/12/27 04:00:17;;;;;;;13.27;3.93;;;0.20;81.70;;;;;;5011991;28;20076;-72
2023/12/27 04:02:43;;;;;;;16.23;3.97;;;0.20;81.80;;;;;;5010046;28;20060;-72
2023/12/27 04:05:09;;;;;;;19.97;4.00;;;0.20;81.70;;;;;;5021066;28;20045;-72
2023/12/27 04:07:35;;;;;;;16.67;3.80;;;0.20;81.70;;;;;;5026006;28;20061;-72
2023/12/27 04:10:00;;;;;;;16.17;4.10;;;0.20;81.80;;;;;;5016982;28;20065;-72
2023/12/27 04:12:27;;;;;;;18.20;4.93;;;0.30;81.90;;;;;;5025645;28;20072;-74
2023/12/27 04:14:52;;;;;;;13.50;3.33;;;0.30;82.00;;;;;;5025318;28;20135;-72
2023/12/27 04:17:18;;;;;;;28.20;4.27;;;0.30;82.00;;;;;;5025460;28;20049;-72
2023/12/27 04:19:43;;;;;;;18.87;4.47;;;0.30;82.00;;;;;;5025863;28;20150;-72
2023/12/27 04:22:09;;;;;;;23.93;4.67;;;0.40;82.10;;;;;;5041394;28;20045;-72
2023/12/27 04:24:35;;;;;;;23.10;4.87;;;0.40;82.10;;;;;;5026002;28;20060;-72
2023/12/27 04:27:01;;;;;;;19.67;4.60;;;0.40;82.20;;;;;;5025568;28;20064;-72
2023/12/27 04:29:27;;;;;;;14.13;4.73;;;0.40;82.40;;;;;;5026727;28;20057;-72
2023/12/27 04:31:52;;;;;;;15.17;4.37;;;0.40;82.30;;;;;;5024599;28;20515;-73
2023/12/27 04:34:18;;;;;;;12.90;4.00;;;0.40;82.40;;;;;;5006305;28;20050;-73
2023/12/27 04:36:44;;;;;;;18.83;4.70;;;0.40;82.40;;;;;;5004804;28;20046;-72
2023/12/27 04:39:09;;;;;;;17.83;4.43;;;0.40;82.50;;;;;;5006273;28;20086;-72
2023/12/27 04:41:35;;;;;;;26.80;4.87;;;0.40;82.50;;;;;;5023673;28;20125;-72
2023/12/27 04:44:01;;;;;;;23.70;4.80;;;0.40;82.70;;;;;;5020518;28;20057;-72
2023/12/27 04:46:26;;;;;;;17.77;4.93;;;0.40;82.80;;;;;;5025057;28;20061;-73
2023/12/27 04:48:52;;;;;;;19.20;4.23;;;0.40;82.90;;;;;;5025332;28;20053;-72
2023/12/27 04:51:18;;;;;;;22.73;4.87;;;0.50;83.00;;;;;;5025554;28;20115;-73
2023/12/27 04:53:44;;;;;;;28.10;5.10;;;0.50;82.90;;;;;;5018756;28;20042;-72
2023/12/27 04:56:09;;;;;;;19.67;4.17;;;0.50;83.00;;;;;;5005805;28;20038;-72
2023/12/27 04:58:38;;;;;;;23.50;5.17;;;0.50;83.00;;;;;;5012691;28;20046;-72
2023/12/27 05:01:05;;;;;;;20.83;4.20;;;0.50;83.10;;;;;;5022992;28;20046;-74
2023/12/27 05:03:35;;;;;;;25.73;5.30;;;0.50;83.10;;;;;;5023119;28;20061;-72
2023/12/27 05:06:01;;;;;;;20.57;4.47;;;0.50;83.20;;;;;;5024235;28;20045;-74
2023/12/27 05:08:27;;;;;;;21.30;5.03;;;0.50;83.10;;;;;;5026387;28;20568;-72
2023/12/27 05:10:53;;;;;;;19.80;4.63;;;0.50;83.00;;;;;;5018989;28;20073;-73
2023/12/27 05:13:19;;;;;;;24.97;5.00;;;0.50;83.00;;;;;;5008270;28;20081;-72
2023/12/27 05:15:46;;;;;;;18.40;4.23;;;0.40;82.90;;;;;;5008183;28;20050;-73
2023/12/27 05:18:12;;;;;;;17.90;4.57;;;0.50;83.00;;;;;;5019018;28;20046;-72
2023/12/27 05:20:38;;;;;;;25.70;5.13;;;0.40;82.90;;;;;;5009348;28;20096;-72
2023/12/27 05:23:03;;;;;;;23.33;5.60;;;0.50;82.90;;;;;;5026270;28;20128;-73
2023/12/27 05:25:29;;;;;;;17.03;4.67;;;0.40;82.90;;;;;;5026579;28;20160;-72
2023/12/27 05:27:55;;;;;;;26.27;6.13;;;0.40;83.00;;;;;;5007044;28;20428;-73
2023/12/27 05:30:20;;;;;;;23.30;5.50;;;0.40;83.20;;;;;;5039058;28;20063;-73
2023/12/27 05:32:46;;;;;;;29.03;6.67;;;0.50;83.20;;;;;;5027775;28;20543;-73
2023/12/27 05:35:12;;;;;;;32.33;7.83;;;0.50;83.30;;;;;;5028227;28;20404;-72
2023/12/27 05:37:37;;;;;;;26.43;6.53;;;0.60;83.30;;;;;;5028531;28;20057;-72
2023/12/27 05:40:03;;;;;;;29.60;5.93;;;0.60;83.50;;;;;;5028519;28;20045;-72
2023/12/27 05:42:29;;;;;;;31.13;6.77;;;0.60;83.40;;;;;;5022341;28;20046;-72
2023/12/27 05:44:55;;;;;;;21.17;6.63;;;0.60;83.20;;;;;;5027349;28;20559;-72
2023/12/27 05:47:21;;;;;;;25.50;6.97;;;0.60;83.20;;;;;;5028151;28;20057;-72
2023/12/27 05:49:46;;;;;;;29.93;6.50;;;0.60;83.20;;;;;;5028167;28;20053;-72
2023/12/27 05:52:12;;;;;;;24.73;7.20;;;0.60;83.20;;;;;;5028637;28;20057;-72
2023/12/27 05:54:38;;;;;;;26.33;7.57;;;0.60;83.20;;;;;;5043070;28;20140;-74
2023/12/27 05:57:04;;;;;;;31.97;7.63;;;0.60;83.20;;;;;;5027922;28;20049;-72
2023/12/27 05:59:29;;;;;;;26.63;8.13;;;0.60;83.20;;;;;;5021744;28;20068;-73
2023/12/27 06:01:55;;;;;;;29.90;8.33;;;0.60;83.30;;;;;;5010710;28;20635;-72
2023/12/27 06:04:21;;;;;;;31.37;8.43;;;0.60;83.40;;;;;;5024367;28;20060;-72
2023/12/27 06:06:49;;;;;;;33.70;7.67;;;0.60;83.40;;;;;;5027159;28;20049;-72
2023/12/27 06:09:18;;;;;;;26.37;7.80;;;0.60;83.30;;;;;;5028369;28;20113;-72
2023/12/27 06:11:45;;;;;;;29.10;8.13;;;0.70;83.20;;;;;;5010334;28;20050;-73
2023/12/27 06:14:11;;;;;;;25.90;8.20;;;0.60;83.30;;;;;;5008579;28;20068;-73
2023/12/27 06:16:37;;;;;;;17.70;7.63;;;0.60;83.30;;;;;;5007948;28;20141;-72
2023/12/27 06:19:03;;;;;;;24.93;7.53;;;0.60;83.20;;;;;;5026304;28;20112;-73
2023/12/27 06:21:29;;;;;;;25.73;7.43;;;0.60;83.30;;;;;;5026787;28;20061;-73
2023/12/27 06:23:55;;;;;;;29.87;7.60;;;0.70;83.20;;;;;;5027728;28;20053;-72
2023/12/27 06:26:22;;;;;;;22.83;8.00;;;0.70;83.30;;;;;;5027233;28;20076;-74
2023/12/27 06:28:47;;;;;;;32.33;7.93;;;0.70;83.50;;;;;;5026328;28;20145;-72
2023/12/27 06:31:13;;;;;;;27.83;7.50;;;0.80;83.50;;;;;;5026603;28;20124;-73
2023/12/27 06:33:39;;;;;;;21.90;7.90;;;0.80;83.50;;;;;;5014670;28;20058;-73
2023/12/27 06:36:06;;;;;;;28.33;9.83;;;0.80;83.50;;;;;;5018222;28;20092;-72
2023/12/27 06:38:32;;;;;;;32.63;9.50;;;0.80;83.60;;;;;;5028054;28;20386;-72
2023/12/27 06:40:58;;;;;;;41.87;9.67;;;0.80;83.70;;;;;;5027221;28;20096;-74
2023/12/27 06:43:24;;;;;;;32.50;9.50;;;0.90;83.70;;;;;;5021929;28;20382;-73
2023/12/27 06:45:49;;;;;;;26.23;8.70;;;1.00;84.00;;;;;;5025163;28;20057;-73
2023/12/27 06:48:15;;;;;;;29.23;8.30;;;1.00;84.00;;;;;;5028271;28;20121;-73
2023/12/27 06:50:44;;;;;;;29.00;8.93;;;1.00;84.00;;;;;;5026206;28;20254;-72
2023/12/27 06:53:09;;;;;;;25.10;8.47;;;1.00;83.90;;;;;;5027736;28;20041;-72
2023/12/27 06:55:35;;;;;;;25.97;8.80;;;1.10;84.00;;;;;;5025713;28;20135;-73
2023/12/27 06:58:01;;;;;;;33.10;8.60;;;1.10;83.90;;;;;;5026261;28;20059;-73
2023/12/27 07:00:28;;;;;;;32.73;7.97;;;1.10;83.90;;;;;;5026739;28;20084;-73
2023/12/27 07:02:54;;;;;;;22.00;8.07;;;1.10;83.80;;;;;;5019095;28;20429;-73
2023/12/27 07:05:20;;;;;;;25.70;7.97;;;1.20;83.80;;;;;;5019324;28;20091;-73
2023/12/27 07:07:46;;;;;;;24.87;7.20;;;1.20;83.80;;;;;;5026797;28;20639;-73
2023/12/27 07:10:12;;;;;;;29.43;7.67;;;1.30;83.80;;;;;;5022474;28;20095;-74
2023/12/27 07:12:38;;;;;;;25.97;7.00;;;1.40;83.90;;;;;;5005769;28;20465;-72
2023/12/27 07:15:07;;;;;;;36.97;6.80;;;1.40;83.90;;;;;;5007386;28;20050;-73
2023/12/27 07:17:33;;;;;;;24.20;6.03;;;1.40;84.00;;;;;;5013145;28;20501;-73
2023/12/27 07:20:00;;;;;;;21.40;5.57;;;1.50;84.00;;;;;;5026903;28;20053;-73
2023/12/27 07:22:26;;;;;;;23.00;5.90;;;1.50;84.10;;;;;;5026856;28;20541;-73
2023/12/27 07:24:52;;;;;;;23.03;5.90;;;1.60;84.20;;;;;;5026357;28;20049;-74
2023/12/27 07:27:18;;;;;;;22.47;5.57;;;1.60;84.20;;;;;;5026697;28;20348;-73
2023/12/27 07:29:44;;;;;;;19.87;4.90;;;1.70;84.20;;;;;;5026165;28;20401;-73
2023/12/27 07:32:10;;;;;;;25.10;5.40;;;1.70;84.20;;;;;;5025902;28;20492;-73
2023/12/27 07:34:35;;;;;;;22.53;4.83;;;1.80;84.10;;;;;;5007318;28;20096;-74
2023/12/27 07:37:01;;;;;;;26.97;4.63;;;1.80;84.10;;;;;;5020909;28;20053;-74
2023/12/27 07:39:27;;;;;;;18.53;4.10;;;1.90;84.10;;;;;;5025469;28;20099;-74
2023/12/27 07:41:52;;;;;;;16.63;3.87;;;1.90;84.00;;;;;;5024361;28;20049;-74
2023/12/27 07:44:20;;;;;;;25.17;4.20;;;2.00;84.00;;;;;;5020967;28;20045;-74
2023/12/27 07:46:46;;;;;;;20.37;3.60;;;2.00;83.90;;;;;;5025143;28;20053;-73
2023/12/27 07:49:11;;;;;;;23.23;3.40;;;2.10;83.90;;;;;;5026178;28;20095;-74
2023/12/27 07:51:37;;;;;;;13.53;3.37;;;2.20;83.90;;;;;;5025570;28;20402;-74
2023/12/27 07:54:03;;;;;;;17.23;3.40;;;2.30;83.80;;;;;;5026462;28;20081;-73
2023/12/27 07:56:29;;;;;;;18.87;3.03;;;2.30;83.70;;;;;;5026145;28;20045;-74
2023/12/27 07:58:55;;;;;;;17.60;3.10;;;2.40;83.70;;;;;;5026427;28;20041;-73
2023/12/27 08:01:21;;;;;;;13.73;3.13;;;2.50;83.50;;;;;;5041398;28;20049;-74
2023/12/27 08:03:47;;;;;;;17.93;3.73;;;2.50;83.40;;;;;;5025267;28;20060;-74
2023/12/27 08:06:13;;;;;;;19.20;4.40;;;2.50;83.40;;;;;;5026008;28;20045;-74
2023/12/27 08:08:38;;;;;;;17.27;6.57;;;2.50;83.40;;;;;;5025867;28;20054;-74
2023/12/27 08:11:04;;;;;;;22.53;7.37;;;2.60;83.30;;;;;;5016242;28;20052;-74
2023/12/27 08:13:35;;;;;;;30.47;8.97;;;2.60;83.20;;;;;;5026812;28;20133;-74
2023/12/27 08:16:01;;;;;;;25.70;8.00;;;2.70;83.20;;;;;;5023810;28;20042;-74
2023/12/27 08:18:26;;;;;;;21.33;5.20;;;2.70;83.20;;;;;;5025582;28;20065;-74
2023/12/27 08:20:53;;;;;;;19.37;4.70;;;2.70;83.10;;;;;;5022480;28;20057;-74
2023/12/27 08:23:18;;;;;;;25.80;4.10;;;2.80;83.10;;;;;;5025538;28;20516;-74
2023/12/27 08:25:45;;;;;;;15.27;3.70;;;2.80;83.00;;;;;;5024230;28;20054;-74
2023/12/27 08:28:10;;;;;;;14.67;3.77;;;2.90;83.00;;;;;;5025116;28;20052;-74
2023/12/27 08:30:36;;;;;;;19.03;4.10;;;2.90;82.80;;;;;;5024284;28;20045;-73
2023/12/27 08:33:06;;;;;;;18.87;4.20;;;3.00;82.80;;;;;;5020953;28;20173;-74
2023/12/27 08:35:33;;;;;;;17.47;4.03;;;3.00;82.80;;;;;;5024428;28;20049;-74
2023/12/27 08:37:59;;;;;;;18.10;4.13;;;3.00;82.70;;;;;;5023779;28;20169;-74
2023/12/27 08:40:25;;;;;;;11.10;3.97;;;3.00;82.70;;;;;;5023145;28;20072;-74
2023/12/27 08:42:50;;;;;;;23.43;5.13;;;3.00;82.60;;;;;;5022514;28;20049;-74
2023/12/27 08:45:16;;;;;;;22.43;5.43;;;3.00;82.60;;;;;;5028716;28;20045;-74
2023/12/27 08:47:43;;;;;;;17.90;5.47;;;3.10;82.70;;;;;;5028774;28;20097;-74
2023/12/27 08:50:10;;;;;;;17.53;5.47;;;3.10;82.60;;;;;;5027116;28;20050;-74
2023/12/27 08:52:37;;;;;;;18.97;5.87;;;3.10;82.70;;;;;;5027287;28;20077;-73
2023/12/27 08:55:05;;;;;;;18.33;6.10;;;3.10;82.70;;;;;;5015737;28;20052;-73
2023/12/27 08:57:34;;;;;;;25.43;7.70;;;3.10;82.70;;;;;;5013881;28;20374;-74
2023/12/27 09:00:00;;;;;;;29.30;7.87;;;3.10;82.70;;;;;;5021428;28;20041;-74
2023/12/27 09:02:27;;;;;;;27.90;7.53;;;3.10;82.70;;;;;;5027452;28;20141;-74
2023/12/27 09:04:53;;;;;;;21.80;7.50;;;3.20;82.60;;;;;;5025125;28;20042;-74
2023/12/27 09:07:18;;;;;;;23.27;8.33;;;3.20;82.70;;;;;;5028116;28;20052;-74
2023/12/27 09:09:44;;;;;;;28.60;7.47;;;3.30;82.60;;;;;;5028283;28;20349;-73
2023/12/27 09:12:10;;;;;;;22.47;5.63;;;3.30;82.60;;;;;;5027713;28;20481;-74
2023/12/27 09:14:39;;;;;;;18.87;6.27;;;3.30;82.50;;;;;;5027129;28;20076;-74
2023/12/27 09:17:05;;;;;;;24.87;6.80;;;3.30;82.50;;;;;;5025583;28;20400;-74
2023/12/27 09:19:31;;;;;;;14.33;5.87;;;3.30;82.40;;;;;;5027706;28;20084;-74
2023/12/27 09:21:57;;;;;;;23.37;7.00;;;3.30;82.40;;;;;;5026160;28;20077;-74
2023/12/27 09:24:22;;;;;;;22.63;7.00;;;3.30;82.40;;;;;;5028709;28;20045;-73
2023/12/27 09:26:48;;;;;;;22.67;6.90;;;3.30;82.40;;;;;;5026975;28;20452;-73
2023/12/27 09:29:15;;;;;;;23.83;7.23;;;3.30;82.40;;;;;;5026805;28;20041;-74
2023/12/27 09:31:41;;;;;;;22.70;6.97;;;3.40;82.40;;;;;;5027556;28;20073;-72
2023/12/27 09:34:07;;;;;;;21.07;6.70;;;3.40;82.30;;;;;;5025447;28;20733;-74
2023/12/27 09:36:32;;;;;;;17.90;5.63;;;3.40;82.50;;;;;;5025864;28;20041;-74
2023/12/27 09:38:59;;;;;;;18.23;5.60;;;3.40;82.30;;;;;;5008759;28;20069;-74
2023/12/27 09:41:25;;;;;;;21.07;5.20;;;3.50;82.30;;;;;;5022795;28;20061;-74
2023/12/27 09:43:53;;;;;;;18.17;5.10;;;3.50;82.30;;;;;;5036101;28;20056;-74
2023/12/27 09:46:20;;;;;;;18.77;5.17;;;3.50;82.30;;;;;;5025873;28;20080;-74
2023/12/27 09:48:47;;;;;;;24.47;5.47;;;3.50;82.30;;;;;;5039474;28;20594;-73
2023/12/27 09:51:14;;;;;;;19.10;5.17;;;3.50;82.30;;;;;;5040666;28;20440;-74
2023/12/27 09:53:40;;;;;;;21.97;4.50;;;3.50;82.30;;;;;;5025397;28;20547;-72
2023/12/27 09:56:07;;;;;;;19.27;4.97;;;3.50;82.40;;;;;;5024379;28;20056;-74
2023/12/27 09:58:36;;;;;;;21.10;4.93;;;3.50;82.40;;;;;;5026567;28;20054;-74
2023/12/27 10:01:02;;;;;;;18.97;4.60;;;3.50;82.50;;;;;;5023547;28;20165;-74
2023/12/27 10:03:35;;;;;;;16.47;4.40;;;3.60;82.50;;;;;;5022629;28;20049;-74
2023/12/27 10:06:37;;;;;;;16.63;4.40;;;3.60;82.30;;;;;;5025110;28;20045;-74
2023/12/27 10:09:03;;;;;;;;;;;3.70;82.30;;;;;;4997562;28;20377;-74
2023/12/27 10:11:31;;;;;;;23.87;4.70;;;3.70;82.30;;;;;;5024740;28;19932;-74
2023/12/27 10:13:56;;;;;;;16.23;5.33;;;3.80;82.40;;;;;;5025107;28;20120;-73
2023/12/27 10:16:22;;;;;;;17.97;4.70;;;3.80;82.30;;;;;;5024129;28;20057;-74
2023/12/27 10:18:48;;;;;;;21.33;5.43;;;3.90;82.20;;;;;;5017784;28;20049;-73
2023/12/27 10:21:16;;;;;;;18.93;5.60;;;3.90;82.20;;;;;;5023593;28;20045;-73
2023/12/27 10:23:41;;;;;;;18.80;6.13;;;4.00;82.20;;;;;;5023127;28;20116;-74
2023/12/27 10:26:08;;;;;;;19.73;5.67;;;4.00;82.20;;;;;;5024275;28;20424;-74
2023/12/27 10:28:34;;;;;;;25.60;5.87;;;4.00;82.30;;;;;;5024827;28;20088;-73
2023/12/27 10:30:59;;;;;;;20.47;6.10;;;4.10;82.30;;;;;;5023238;28;20049;-74
2023/12/27 10:33:25;;;;;;;21.30;5.77;;;4.10;82.40;;;;;;5025331;28;20049;-74
2023/12/27 10:35:51;;;;;;;21.77;6.67;;;4.10;82.40;;;;;;5023614;28;20041;-74
2023/12/27 10:38:17;;;;;;;19.17;7.00;;;4.10;82.50;;;;;;5025340;28;20139;-73
2023/12/27 10:40:44;;;;;;;23.93;7.80;;;4.20;82.50;;;;;;5023742;28;20519;-74
2023/12/27 10:43:09;;;;;;;21.07;7.53;;;4.20;82.40;;;;;;5016188;28;20057;-74
2023/12/27 10:45:36;;;;;;;27.67;9.07;;;4.20;82.50;;;;;;5023757;28;20057;-73
2023/12/27 10:48:06;;;;;;;19.83;8.80;;;4.30;82.50;;;;;;5023489;28;20052;-73
2023/12/27 10:50:33;;;;;;;35.00;8.87;;;4.30;82.50;;;;;;5024510;28;20064;-73
2023/12/27 10:53:06;;;;;;;24.80;9.37;;;4.40;82.40;;;;;;5023587;28;20381;-74
2023/12/27 10:55:33;;;;;;;23.97;8.67;;;4.40;82.40;;;;;;5022092;28;20077;-74
2023/12/27 10:58:02;;;;;;;22.97;8.27;;;4.40;82.30;;;;;;5025125;28;20055;-74
2023/12/27 11:00:28;;;;;;;26.43;8.50;;;4.40;82.30;;;;;;5024482;28;20100;-74
2023/12/27 11:02:55;;;;;;;25.13;8.53;;;4.40;82.20;;;;;;5024080;28;20433;-74
2023/12/27 11:05:23;;;;;;;27.67;8.93;;;4.40;82.10;;;;;;5023835;28;20041;-74
2023/12/27 11:07:54;;;;;;;26.73;9.07;;;4.40;82.20;;;;;;5023545;28;20575;-74
2023/12/27 11:10:21;;;;;;;27.38;9.77;;;4.40;82.20;;;;;;5024157;28;20058;-73
2023/12/27 11:12:47;;;;;;;28.63;11.10;;;4.40;82.30;;;;;;5024167;28;20057;-74
2023/12/27 11:15:14;;;;;;;26.73;10.87;;;4.40;82.30;;;;;;5023851;28;20087;-74
2023/12/27 11:17:41;;;;;;;30.83;11.40;;;4.40;82.40;;;;;;5026229;28;20091;-72
2023/12/27 11:20:11;;;;;;;21.40;11.23;;;4.50;82.50;;;;;;5023031;28;20046;-74
2023/12/27 11:22:38;;;;;;;32.97;11.57;;;4.40;82.50;;;;;;5022930;28;20104;-74
2023/12/27 11:25:05;;;;;;;30.60;11.23;;;4.40;82.50;;;;;;5019085;28;20056;-74
2023/12/27 11:27:31;;;;;;;21.27;12.00;;;4.40;82.50;;;;;;5023136;28;20445;-74
2023/12/27 11:30:00;;;;;;;27.60;12.93;;;4.40;82.60;;;;;;5022539;28;20065;-73
2023/12/27 11:32:27;;;;;;;27.07;12.13;;;4.50;82.50;;;;;;5021950;28;20077;-74
2023/12/27 11:34:55;;;;;;;28.63;12.03;;;4.40;82.60;;;;;;5021462;28;20053;-74
2023/12/27 11:37:22;;;;;;;26.13;12.33;;;4.40;82.80;;;;;;5023329;28;20084;-74
2023/12/27 11:39:51;;;;;;;26.13;10.97;;;4.40;83.00;;;;;;5014317;28;20501;-74
2023/12/27 11:42:17;;;;;;;22.90;10.73;;;4.40;83.20;;;;;;5017269;28;20533;-74
2023/12/27 11:44:51;;;;;;;27.20;11.27;;;4.40;83.30;;;;;;5023469;28;20045;-74
2023/12/27 11:47:19;;;;;;;33.33;11.17;;;4.40;83.30;;;;;;5023505;28;20049;-74
2023/12/27 11:50:14;;;;;;;27.93;11.63;;;4.40;83.60;;;;;;5023338;28;20641;-74
2023/12/27 11:52:46;;;;;;;30.33;11.40;;;4.40;83.70;;;;;;5022880;28;20077;-72
2023/12/27 11:55:24;;;;;;;27.67;12.07;;;4.40;83.80;;;;;;5023565;28;20085;-74
2023/12/27 11:57:57;;;;;;;33.63;12.03;;;4.40;83.80;;;;;;4993828;28;20497;-74
2023/12/27 12:00:24;;;;;;;35.60;13.37;;;4.40;83.70;;;;;;5027479;28;20057;-74
2023/12/27 12:02:57;;;;;;;34.23;13.63;;;4.40;84.00;;;;;;5023421;28;20052;-74
2023/12/27 12:05:56;;;;;;;34.43;14.33;;;4.40;84.10;;;;;;5022869;28;20053;-74
2023/12/27 12:08:23;;;;;;;30.40;14.47;;;4.30;84.30;;;;;;4977723;28;20076;-74
2023/12/27 12:11:10;;;;;;;34.87;15.10;;;4.30;84.70;;;;;;5003599;28;20353;-74
2023/12/27 12:13:38;;;;;;;33.27;15.70;;;4.30;84.80;;;;;;5017173;28;20045;-74
2023/12/27 12:16:05;;;;;;;39.47;15.93;;;4.30;84.90;;;;;;5014922;28;20457;-74
2023/12/27 12:18:33;;;;;;;41.77;15.90;;;4.20;85.10;;;;;;5022478;28;20069;-74
2023/12/27 12:20:59;;;;;;;44.47;16.37;;;4.20;85.30;;;;;;5022905;28;20116;-74
2023/12/27 12:23:28;;;;;;;41.80;16.90;;;4.20;85.50;;;;;;5022705;28;20053;-74
2023/12/27 12:26:02;;;;;;;34.10;16.80;;;4.20;85.50;;;;;;5021445;28;20085;-74
2023/12/27 12:28:29;;;;;;;41.10;18.67;;;4.20;85.70;;;;;;5018634;28;20084;-74
2023/12/27 12:30:58;;;;;;;43.40;17.90;;;4.20;85.70;;;;;;5020205;28;20061;-74
2023/12/27 12:33:24;;;;;;;43.17;18.77;;;4.20;85.90;;;;;;5018895;28;20104;-74
2023/12/27 12:35:52;;;;;;;43.73;19.30;;;4.20;86.00;;;;;;5022211;28;20060;-74
2023/12/27 12:38:18;;;;;;;37.83;19.07;;;4.20;86.00;;;;;;5019075;28;20088;-74
2023/12/27 12:40:48;;;;;;;43.93;19.77;;;4.20;86.20;;;;;;5022647;28;20076;-74
2023/12/27 12:43:17;;;;;;;47.80;19.77;;;4.20;86.30;;;;;;5018731;28;20065;-74